sensor_id;sensor_type;location;lat;lon;timestamp;temperature;humidity
43185;DHT22;28803;52.308;19.096;2023-05-29T00:00:06;8.60;1.00
43185;DHT22;28803;52.308;19.096;2023-05-29T00:02:56;8.50;1.00
43185;DHT22;28803;52.308;19.096;2023-05-29T00:05:23;8.50;1.00
43185;DHT22;28803;52.308;19.096;2023-05-29T00:07:50;8.40;1.00
43185;DHT22;28803;52.308;19.096;2023-05-29T00:10:17;8.40;1.00
43185;DHT22;28803;52.308;19.096;2023-05-29T00:12:45;8.40;1.00
43185;DHT22;28803;52.308;19.096;2023-05-29T00:15:12;8.30;62.50
43185;DHT22;28803;52.308;19.096;2023-05-29T00:17:40;8.30;99.90
43185;DHT22;28803;52.308;19.096;2023-05-29T00:20:07;8.30;99.90
43185;DHT22;28803;52.308;19.096;2023-05-29T00:22:39;8.30;99.90
43185;DHT22;28803;52.308;19.096;2023-05-29T00:25:07;8.40;99.90
43185;DHT22;28803;52.308;19.096;2023-05-29T00:27:35;8.30;99.90
43185;DHT22;28803;52.308;19.096;2023-05-29T00:30:03;8.40;1.00
43185;DHT22;28803;52.308;19.096;2023-05-29T00:32:31;8.40;1.00
43185;DHT22;28803;52.308;19.096;2023-05-29T00:34:58;8.30;99.90
43185;DHT22;28803;52.308;19.096;2023-05-29T00:37:25;8.20;99.90
43185;DHT22;28803;52.308;19.096;2023-05-29T00:39:53;8.20;99.90
43185;DHT22;28803;52.308;19.096;2023-05-29T00:42:21;8.10;99.90
43185;DHT22;28803;52.308;19.096;2023-05-29T00:44:48;8.00;99.90
43185;DHT22;28803;52.308;19.096;2023-05-29T00:47:16;8.00;99.90
43185;DHT22;28803;52.308;19.096;2023-05-29T00:49:44;7.90;99.90
43185;DHT22;28803;52.308;19.096;2023-05-29T00:52:12;8.00;1.00
43185;DHT22;28803;52.308;19.096;2023-05-29T00:54:43;7.90;1.00
43185;DHT22;28803;52.308;19.096;2023-05-29T00:57:13;7.90;1.00
43185;DHT22;28803;52.308;19.096;2023-05-29T00:59:41;7.90;1.00
43185;DHT22;28803;52.308;19.096;2023-05-29T01:02:09;7.90;1.00
43185;DHT22;28803;52.308;19.096;2023-05-29T01:04:36;7.80;99.90
43185;DHT22;28803;52.308;19.096;2023-05-29T01:07:05;7.80;99.90
43185;DHT22;28803;52.308;19.096;2023-05-29T01:09:33;7.70;99.90
43185;DHT22;28803;52.308;19.096;2023-05-29T01:12:39;7.60;99.90
43185;DHT22;28803;52.308;19.096;2023-05-29T01:20:52;7.60;1.00
43185;DHT22;28803;52.308;19.096;2023-05-29T01:29:10;7.60;1.00
43185;DHT22;28803;52.308;19.096;2023-05-29T01:31:39;7.60;1.00
43185;DHT22;28803;52.308;19.096;2023-05-29T01:34:07;7.60;1.00
43185;DHT22;28803;52.308;19.096;2023-05-29T01:36:34;7.60;91.20
43185;DHT22;28803;52.308;19.096;2023-05-29T01:39:03;7.60;95.90
43185;DHT22;28803;52.308;19.096;2023-05-29T01:41:31;7.60;99.90
43185;DHT22;28803;52.308;19.096;2023-05-29T01:44:00;7.60;99.90
43185;DHT22;28803;52.308;19.096;2023-05-29T01:46:27;7.50;1.00
43185;DHT22;28803;52.308;19.096;2023-05-29T01:48:55;7.50;1.00
43185;DHT22;28803;52.308;19.096;2023-05-29T01:51:22;7.40;99.90
43185;DHT22;28803;52.308;19.096;2023-05-29T01:53:50;7.40;99.90
43185;DHT22;28803;52.308;19.096;2023-05-29T01:56:17;7.40;99.90
43185;DHT22;28803;52.308;19.096;2023-05-29T01:58:45;7.50;1.00
43185;DHT22;28803;52.308;19.096;2023-05-29T02:01:12;7.60;60.30
43185;DHT22;28803;52.308;19.096;2023-05-29T02:03:40;7.50;1.00
43185;DHT22;28803;52.308;19.096;2023-05-29T02:06:07;7.60;1.00
43185;DHT22;28803;52.308;19.096;2023-05-29T02:08:34;7.50;99.90
43185;DHT22;28803;52.308;19.096;2023-05-29T02:11:01;7.50;1.00
43185;DHT22;28803;52.308;19.096;2023-05-29T02:13:29;7.40;1.00
43185;DHT22;28803;52.308;19.096;2023-05-29T02:15:56;7.40;1.00
43185;DHT22;28803;52.308;19.096;2023-05-29T02:18:23;7.30;1.00
43185;DHT22;28803;52.308;19.096;2023-05-29T02:20:51;7.20;25.40
43185;DHT22;28803;52.308;19.096;2023-05-29T02:23:18;7.30;99.90
43185;DHT22;28803;52.308;19.096;2023-05-29T02:25:46;7.30;99.90
43185;DHT22;28803;52.308;19.096;2023-05-29T02:28:14;7.20;99.90
43185;DHT22;28803;52.308;19.096;2023-05-29T02:30:41;7.20;99.90
43185;DHT22;28803;52.308;19.096;2023-05-29T02:33:08;7.20;99.90
43185;DHT22;28803;52.308;19.096;2023-05-29T02:35:35;7.30;99.90
43185;DHT22;28803;52.308;19.096;2023-05-29T02:38:03;7.10;99.90
43185;DHT22;28803;52.308;19.096;2023-05-29T02:40:30;7.10;99.90
43185;DHT22;28803;52.308;19.096;2023-05-29T02:42:57;7.00;99.90
43185;DHT22;28803;52.308;19.096;2023-05-29T02:45:25;7.10;1.00
43185;DHT22;28803;52.308;19.096;2023-05-29T02:47:52;7.10;1.00
43185;DHT22;28803;52.308;19.096;2023-05-29T02:50:19;7.10;43.60
43185;DHT22;28803;52.308;19.096;2023-05-29T02:52:46;7.10;91.10
43185;DHT22;28803;52.308;19.096;2023-05-29T02:55:13;7.20;91.70
43185;DHT22;28803;52.308;19.096;2023-05-29T02:57:41;7.20;99.90
43185;DHT22;28803;52.308;19.096;2023-05-29T03:00:09;7.40;99.90
43185;DHT22;28803;52.308;19.096;2023-05-29T03:02:36;7.20;99.90
43185;DHT22;28803;52.308;19.096;2023-05-29T03:05:03;7.30;99.90
43185;DHT22;28803;52.308;19.096;2023-05-29T03:07:31;7.30;99.90
43185;DHT22;28803;52.308;19.096;2023-05-29T03:09:58;7.40;99.90
43185;DHT22;28803;52.308;19.096;2023-05-29T03:12:26;7.40;99.90
43185;DHT22;28803;52.308;19.096;2023-05-29T03:14:54;7.50;99.90
43185;DHT22;28803;52.308;19.096;2023-05-29T03:17:24;7.50;99.90
43185;DHT22;28803;52.308;19.096;2023-05-29T03:19:51;7.70;99.90
43185;DHT22;28803;52.308;19.096;2023-05-29T03:22:18;7.60;99.90
43185;DHT22;28803;52.308;19.096;2023-05-29T03:24:45;7.70;99.90
43185;DHT22;28803;52.308;19.096;2023-05-29T03:27:13;7.80;99.90
43185;DHT22;28803;52.308;19.096;2023-05-29T03:29:40;7.90;99.90
43185;DHT22;28803;52.308;19.096;2023-05-29T03:32:07;8.10;99.90
43185;DHT22;28803;52.308;19.096;2023-05-29T03:34:34;8.20;99.90
43185;DHT22;28803;52.308;19.096;2023-05-29T03:37:02;8.30;70.70
43185;DHT22;28803;52.308;19.096;2023-05-29T03:39:30;8.40;1.00
43185;DHT22;28803;52.308;19.096;2023-05-29T03:41:57;8.60;1.00
43185;DHT22;28803;52.308;19.096;2023-05-29T03:44:24;8.70;99.90
43185;DHT22;28803;52.308;19.096;2023-05-29T03:46:51;8.80;99.90
43185;DHT22;28803;52.308;19.096;2023-05-29T03:49:18;8.80;99.90
43185;DHT22;28803;52.308;19.096;2023-05-29T03:51:46;8.80;99.90
43185;DHT22;28803;52.308;19.096;2023-05-29T03:54:13;8.90;48.50
43185;DHT22;28803;52.308;19.096;2023-05-29T03:56:40;9.00;1.00
43185;DHT22;28803;52.308;19.096;2023-05-29T03:59:07;9.00;1.00
43185;DHT22;28803;52.308;19.096;2023-05-29T04:01:35;9.00;1.00
43185;DHT22;28803;52.308;19.096;2023-05-29T04:04:02;9.10;99.90
43185;DHT22;28803;52.308;19.096;2023-05-29T04:06:30;9.20;99.90
43185;DHT22;28803;52.308;19.096;2023-05-29T04:08:57;9.20;99.90
43185;DHT22;28803;52.308;19.096;2023-05-29T04:11:24;9.50;99.90
43185;DHT22;28803;52.308;19.096;2023-05-29T04:13:51;9.40;99.90
43185;DHT22;28803;52.308;19.096;2023-05-29T04:16:19;9.40;1.00
43185;DHT22;28803;52.308;19.096;2023-05-29T04:18:46;9.50;1.00
43185;DHT22;28803;52.308;19.096;2023-05-29T04:21:14;9.60;1.00
43185;DHT22;28803;52.308;19.096;2023-05-29T04:23:41;9.80;1.00
43185;DHT22;28803;52.308;19.096;2023-05-29T04:26:08;9.80;1.00
43185;DHT22;28803;52.308;19.096;2023-05-29T04:28:37;10.00;1.00
43185;DHT22;28803;52.308;19.096;2023-05-29T04:31:05;10.10;1.00
43185;DHT22;28803;52.308;19.096;2023-05-29T04:33:35;10.20;1.00
43185;DHT22;28803;52.308;19.096;2023-05-29T04:36:04;10.40;1.00
43185;DHT22;28803;52.308;19.096;2023-05-29T04:38:31;10.60;99.90
43185;DHT22;28803;52.308;19.096;2023-05-29T04:40:59;10.80;99.90
43185;DHT22;28803;52.308;19.096;2023-05-29T04:43:26;11.10;99.90
43185;DHT22;28803;52.308;19.096;2023-05-29T04:45:53;11.20;99.90
43185;DHT22;28803;52.308;19.096;2023-05-29T04:48:20;11.40;99.90
43185;DHT22;28803;52.308;19.096;2023-05-29T04:50:48;11.70;99.90
43185;DHT22;28803;52.308;19.096;2023-05-29T04:53:15;12.00;99.90
43185;DHT22;28803;52.308;19.096;2023-05-29T04:55:42;12.30;99.90
43185;DHT22;28803;52.308;19.096;2023-05-29T04:58:10;12.60;99.90
43185;DHT22;28803;52.308;19.096;2023-05-29T05:00:39;12.80;99.90
43185;DHT22;28803;52.308;19.096;2023-05-29T05:03:06;13.00;99.90
43185;DHT22;28803;52.308;19.096;2023-05-29T05:05:34;13.30;99.90
43185;DHT22;28803;52.308;19.096;2023-05-29T05:08:01;13.60;99.90
43185;DHT22;28803;52.308;19.096;2023-05-29T05:10:28;13.80;99.90
43185;DHT22;28803;52.308;19.096;2023-05-29T05:12:55;14.00;99.90
43185;DHT22;28803;52.308;19.096;2023-05-29T05:15:23;14.20;99.90
43185;DHT22;28803;52.308;19.096;2023-05-29T05:17:50;14.40;99.90
43185;DHT22;28803;52.308;19.096;2023-05-29T05:20:18;14.60;99.90
43185;DHT22;28803;52.308;19.096;2023-05-29T05:22:45;14.90;99.90
43185;DHT22;28803;52.308;19.096;2023-05-29T05:25:12;15.10;99.90
43185;DHT22;28803;52.308;19.096;2023-05-29T05:27:39;15.30;99.90
43185;DHT22;28803;52.308;19.096;2023-05-29T05:30:07;15.50;99.90
43185;DHT22;28803;52.308;19.096;2023-05-29T05:32:34;15.70;99.90
43185;DHT22;28803;52.308;19.096;2023-05-29T05:35:02;16.00;99.90
43185;DHT22;28803;52.308;19.096;2023-05-29T05:37:30;16.20;99.90
43185;DHT22;28803;52.308;19.096;2023-05-29T05:39:58;16.40;99.90
43185;DHT22;28803;52.308;19.096;2023-05-29T05:42:27;16.60;99.90
43185;DHT22;28803;52.308;19.096;2023-05-29T05:44:54;16.80;99.10
43185;DHT22;28803;52.308;19.096;2023-05-29T05:47:21;16.90;98.60
43185;DHT22;28803;52.308;19.096;2023-05-29T05:49:49;17.00;97.50
43185;DHT22;28803;52.308;19.096;2023-05-29T05:52:18;17.20;97.50
43185;DHT22;28803;52.308;19.096;2023-05-29T05:54:45;17.40;96.10
43185;DHT22;28803;52.308;19.096;2023-05-29T05:57:12;17.60;96.10
43185;DHT22;28803;52.308;19.096;2023-05-29T05:59:40;17.80;95.60
43185;DHT22;28803;52.308;19.096;2023-05-29T06:02:07;18.00;94.40
43185;DHT22;28803;52.308;19.096;2023-05-29T06:04:36;18.20;93.50
43185;DHT22;28803;52.308;19.096;2023-05-29T06:07:03;18.40;92.10
43185;DHT22;28803;52.308;19.096;2023-05-29T06:09:30;18.60;92.20
43185;DHT22;28803;52.308;19.096;2023-05-29T06:11:57;18.80;90.90
43185;DHT22;28803;52.308;19.096;2023-05-29T06:14:26;19.00;90.70
43185;DHT22;28803;52.308;19.096;2023-05-29T06:16:53;19.20;89.50
43185;DHT22;28803;52.308;19.096;2023-05-29T06:19:21;19.50;88.60
43185;DHT22;28803;52.308;19.096;2023-05-29T06:21:48;19.90;86.20
43185;DHT22;28803;52.308;19.096;2023-05-29T06:24:15;20.20;85.30
43185;DHT22;28803;52.308;19.096;2023-05-29T06:26:42;20.60;82.20
43185;DHT22;28803;52.308;19.096;2023-05-29T06:29:10;21.00;78.70
43185;DHT22;28803;52.308;19.096;2023-05-29T06:31:37;21.40;78.20
43185;DHT22;28803;52.308;19.096;2023-05-29T06:34:04;21.80;77.40
43185;DHT22;28803;52.308;19.096;2023-05-29T06:36:32;22.30;74.90
43185;DHT22;28803;52.308;19.096;2023-05-29T06:39:00;22.80;73.60
43185;DHT22;28803;52.308;19.096;2023-05-29T06:41:27;23.30;71.70
43185;DHT22;28803;52.308;19.096;2023-05-29T06:43:54;23.90;67.50
43185;DHT22;28803;52.308;19.096;2023-05-29T06:46:21;24.50;66.10
43185;DHT22;28803;52.308;19.096;2023-05-29T06:48:49;25.10;63.60
43185;DHT22;28803;52.308;19.096;2023-05-29T06:51:17;25.60;60.40
43185;DHT22;28803;52.308;19.096;2023-05-29T06:53:45;26.10;59.00
43185;DHT22;28803;52.308;19.096;2023-05-29T06:56:12;26.40;58.50
43185;DHT22;28803;52.308;19.096;2023-05-29T06:58:39;26.90;56.40
43185;DHT22;28803;52.308;19.096;2023-05-29T07:01:06;27.20;53.80
43185;DHT22;28803;52.308;19.096;2023-05-29T07:03:35;27.70;50.60
43185;DHT22;28803;52.308;19.096;2023-05-29T07:06:04;28.20;52.80
43185;DHT22;28803;52.308;19.096;2023-05-29T07:08:32;28.60;48.70
43185;DHT22;28803;52.308;19.096;2023-05-29T07:10:59;29.10;47.60
43185;DHT22;28803;52.308;19.096;2023-05-29T07:13:26;29.40;45.10
43185;DHT22;28803;52.308;19.096;2023-05-29T07:15:53;30.00;45.10
43185;DHT22;28803;52.308;19.096;2023-05-29T07:18:21;30.50;44.00
43185;DHT22;28803;52.308;19.096;2023-05-29T07:20:49;30.90;43.60
43185;DHT22;28803;52.308;19.096;2023-05-29T07:23:17;30.90;41.20
43185;DHT22;28803;52.308;19.096;2023-05-29T07:25:44;31.40;43.70
43185;DHT22;28803;52.308;19.096;2023-05-29T07:28:12;31.70;40.80
43185;DHT22;28803;52.308;19.096;2023-05-29T07:30:48;32.00;41.90
43185;DHT22;28803;52.308;19.096;2023-05-29T07:33:16;32.00;40.90
43185;DHT22;28803;52.308;19.096;2023-05-29T07:35:43;31.90;40.40
43185;DHT22;28803;52.308;19.096;2023-05-29T07:38:10;32.50;41.20
43185;DHT22;28803;52.308;19.096;2023-05-29T07:40:37;33.10;39.80
43185;DHT22;28803;52.308;19.096;2023-05-29T07:43:08;33.60;38.30
43185;DHT22;28803;52.308;19.096;2023-05-29T07:45:35;33.80;38.60
43185;DHT22;28803;52.308;19.096;2023-05-29T07:48:02;33.70;37.60
43185;DHT22;28803;52.308;19.096;2023-05-29T07:50:29;33.60;39.80
43185;DHT22;28803;52.308;19.096;2023-05-29T07:52:57;34.10;38.90
43185;DHT22;28803;52.308;19.096;2023-05-29T07:55:24;34.90;38.40
43185;DHT22;28803;52.308;19.096;2023-05-29T07:57:52;35.10;38.00
43185;DHT22;28803;52.308;19.096;2023-05-29T08:00:20;35.00;38.40
43185;DHT22;28803;52.308;19.096;2023-05-29T08:02:49;34.40;38.10
43185;DHT22;28803;52.308;19.096;2023-05-29T08:05:16;33.90;41.00
43185;DHT22;28803;52.308;19.096;2023-05-29T08:07:44;34.60;37.60
43185;DHT22;28803;52.308;19.096;2023-05-29T08:10:11;35.40;38.00
43185;DHT22;28803;52.308;19.096;2023-05-29T08:12:38;35.70;36.80
43185;DHT22;28803;52.308;19.096;2023-05-29T08:15:05;36.00;37.40
43185;DHT22;28803;52.308;19.096;2023-05-29T08:17:33;36.40;38.00
43185;DHT22;28803;52.308;19.096;2023-05-29T08:20:00;37.00;36.60
43185;DHT22;28803;52.308;19.096;2023-05-29T08:22:29;37.60;35.60
43185;DHT22;28803;52.308;19.096;2023-05-29T08:24:56;36.30;33.40
43185;DHT22;28803;52.308;19.096;2023-05-29T08:27:24;36.20;35.60
43185;DHT22;28803;52.308;19.096;2023-05-29T08:29:51;35.70;34.20
43185;DHT22;28803;52.308;19.096;2023-05-29T08:32:18;35.60;35.90
43185;DHT22;28803;52.308;19.096;2023-05-29T08:34:45;36.50;35.50
43185;DHT22;28803;52.308;19.096;2023-05-29T08:37:13;37.20;36.40
43185;DHT22;28803;52.308;19.096;2023-05-29T08:39:40;36.70;38.30
43185;DHT22;28803;52.308;19.096;2023-05-29T08:42:13;36.70;35.60
43185;DHT22;28803;52.308;19.096;2023-05-29T08:44:44;36.30;37.40
43185;DHT22;28803;52.308;19.096;2023-05-29T08:47:14;36.10;38.60
43185;DHT22;28803;52.308;19.096;2023-05-29T08:49:53;35.20;35.90
43185;DHT22;28803;52.308;19.096;2023-05-29T08:52:23;34.90;37.30
43185;DHT22;28803;52.308;19.096;2023-05-29T08:54:54;36.30;36.40
43185;DHT22;28803;52.308;19.096;2023-05-29T08:57:22;36.50;37.50
43185;DHT22;28803;52.308;19.096;2023-05-29T08:59:51;36.40;36.40
43185;DHT22;28803;52.308;19.096;2023-05-29T09:02:22;34.50;36.10
43185;DHT22;28803;52.308;19.096;2023-05-29T09:04:50;33.70;37.40
43185;DHT22;28803;52.308;19.096;2023-05-29T09:07:20;33.90;39.40
43185;DHT22;28803;52.308;19.096;2023-05-29T09:09:48;33.80;38.30
43185;DHT22;28803;52.308;19.096;2023-05-29T09:12:16;34.00;36.20
43185;DHT22;28803;52.308;19.096;2023-05-29T09:14:44;34.20;38.90
43185;DHT22;28803;52.308;19.096;2023-05-29T09:17:13;33.70;37.00
43185;DHT22;28803;52.308;19.096;2023-05-29T09:19:40;33.90;39.30
43185;DHT22;28803;52.308;19.096;2023-05-29T09:22:13;34.60;41.00
43185;DHT22;28803;52.308;19.096;2023-05-29T09:24:47;35.00;37.40
43185;DHT22;28803;52.308;19.096;2023-05-29T09:27:15;35.00;38.30
43185;DHT22;28803;52.308;19.096;2023-05-29T09:29:44;35.60;38.10
43185;DHT22;28803;52.308;19.096;2023-05-29T09:32:17;35.00;36.40
43185;DHT22;28803;52.308;19.096;2023-05-29T09:34:44;35.60;37.40
43185;DHT22;28803;52.308;19.096;2023-05-29T09:37:12;35.80;36.10
43185;DHT22;28803;52.308;19.096;2023-05-29T09:42:15;36.10;37.60
43185;DHT22;28803;52.308;19.096;2023-05-29T09:44:53;35.90;35.10
43185;DHT22;28803;52.308;19.096;2023-05-29T09:47:21;36.00;35.20
43185;DHT22;28803;52.308;19.096;2023-05-29T09:49:48;35.30;39.10
43185;DHT22;28803;52.308;19.096;2023-05-29T09:52:21;34.40;37.10
43185;DHT22;28803;52.308;19.096;2023-05-29T09:54:49;34.40;37.50
43185;DHT22;28803;52.308;19.096;2023-05-29T09:57:18;35.20;37.90
43185;DHT22;28803;52.308;19.096;2023-05-29T09:59:46;37.00;35.40
43185;DHT22;28803;52.308;19.096;2023-05-29T10:02:18;38.70;34.30
43185;DHT22;28803;52.308;19.096;2023-05-29T10:04:46;39.50;33.40
43185;DHT22;28803;52.308;19.096;2023-05-29T10:07:25;37.80;34.00
43185;DHT22;28803;52.308;19.096;2023-05-29T10:10:05;38.20;33.70
43185;DHT22;28803;52.308;19.096;2023-05-29T10:12:38;39.70;33.10
43185;DHT22;28803;52.308;19.096;2023-05-29T10:15:14;41.00;33.10
43185;DHT22;28803;52.308;19.096;2023-05-29T10:17:50;41.40;32.80
43185;DHT22;28803;52.308;19.096;2023-05-29T10:20:20;41.00;32.30
43185;DHT22;28803;52.308;19.096;2023-05-29T10:22:50;41.10;31.60
43185;DHT22;28803;52.308;19.096;2023-05-29T10:25:19;42.30;32.30
43185;DHT22;28803;52.308;19.096;2023-05-29T10:27:49;43.30;31.40
43185;DHT22;28803;52.308;19.096;2023-05-29T10:30:25;43.00;31.40
43185;DHT22;28803;52.308;19.096;2023-05-29T10:35:42;40.00;32.40
43185;DHT22;28803;52.308;19.096;2023-05-29T10:38:15;38.80;33.00
43185;DHT22;28803;52.308;19.096;2023-05-29T10:40:45;38.70;33.20
43185;DHT22;28803;52.308;19.096;2023-05-29T10:43:32;39.50;33.60
43185;DHT22;28803;52.308;19.096;2023-05-29T10:46:02;39.40;35.00
43185;DHT22;28803;52.308;19.096;2023-05-29T10:48:36;39.50;34.70
43185;DHT22;28803;52.308;19.096;2023-05-29T10:51:05;40.20;32.30
43185;DHT22;28803;52.308;19.096;2023-05-29T10:53:37;40.50;33.70
43185;DHT22;28803;52.308;19.096;2023-05-29T10:56:15;41.30;32.50
43185;DHT22;28803;52.308;19.096;2023-05-29T10:58:52;42.10;32.50
43185;DHT22;28803;52.308;19.096;2023-05-29T11:01:23;41.30;33.50
43185;DHT22;28803;52.308;19.096;2023-05-29T11:04:27;39.90;34.10
43185;DHT22;28803;52.308;19.096;2023-05-29T11:06:47;39.70;34.50
43185;DHT22;28803;52.308;19.096;2023-05-29T11:09:35;40.80;34.00
43185;DHT22;28803;52.308;19.096;2023-05-29T11:12:23;41.60;32.80
43185;DHT22;28803;52.308;19.096;2023-05-29T11:15:10;42.50;31.30
43185;DHT22;28803;52.308;19.096;2023-05-29T11:20:20;44.10;31.60
43185;DHT22;28803;52.308;19.096;2023-05-29T11:23:00;43.90;30.60
43185;DHT22;28803;52.308;19.096;2023-05-29T11:25:29;44.00;30.70
43185;DHT22;28803;52.308;19.096;2023-05-29T11:28:01;44.20;31.30
43185;DHT22;28803;52.308;19.096;2023-05-29T11:30:28;44.00;30.80
43185;DHT22;28803;52.308;19.096;2023-05-29T11:33:00;42.50;33.00
43185;DHT22;28803;52.308;19.096;2023-05-29T11:35:30;41.60;32.30
43185;DHT22;28803;52.308;19.096;2023-05-29T11:37:58;41.40;33.20
43185;DHT22;28803;52.308;19.096;2023-05-29T11:40:36;41.40;33.20
43185;DHT22;28803;52.308;19.096;2023-05-29T11:43:03;39.30;32.50
43185;DHT22;28803;52.308;19.096;2023-05-29T11:45:32;35.10;37.20
43185;DHT22;28803;52.308;19.096;2023-05-29T11:48:03;34.80;37.50
43185;DHT22;28803;52.308;19.096;2023-05-29T11:50:33;35.40;38.30
43185;DHT22;28803;52.308;19.096;2023-05-29T11:53:01;37.40;34.10
43185;DHT22;28803;52.308;19.096;2023-05-29T11:55:29;39.30;33.10
43185;DHT22;28803;52.308;19.096;2023-05-29T11:57:58;41.10;32.70
43185;DHT22;28803;52.308;19.096;2023-05-29T12:00:32;42.50;31.40
43185;DHT22;28803;52.308;19.096;2023-05-29T12:03:02;42.60;31.40
43185;DHT22;28803;52.308;19.096;2023-05-29T12:05:32;41.10;31.40
43185;DHT22;28803;52.308;19.096;2023-05-29T12:08:00;38.00;32.50
43185;DHT22;28803;52.308;19.096;2023-05-29T12:10:31;35.20;34.70
43185;DHT22;28803;52.308;19.096;2023-05-29T12:12:59;35.30;36.50
43185;DHT22;28803;52.308;19.096;2023-05-29T12:15:28;37.00;35.30
43185;DHT22;28803;52.308;19.096;2023-05-29T12:17:56;38.50;34.80
43185;DHT22;28803;52.308;19.096;2023-05-29T12:20:25;39.20;34.80
43185;DHT22;28803;52.308;19.096;2023-05-29T12:23:00;40.00;32.00
43185;DHT22;28803;52.308;19.096;2023-05-29T12:25:29;41.00;32.20
43185;DHT22;28803;52.308;19.096;2023-05-29T12:27:56;41.70;32.50
43185;DHT22;28803;52.308;19.096;2023-05-29T12:30:25;42.40;32.10
43185;DHT22;28803;52.308;19.096;2023-05-29T12:32:55;42.80;32.50
43185;DHT22;28803;52.308;19.096;2023-05-29T12:35:26;43.00;33.10
43185;DHT22;28803;52.308;19.096;2023-05-29T12:38:02;43.20;32.70
43185;DHT22;28803;52.308;19.096;2023-05-29T12:40:32;43.00;31.30
43185;DHT22;28803;52.308;19.096;2023-05-29T12:43:07;41.10;31.80
43185;DHT22;28803;52.308;19.096;2023-05-29T12:45:37;38.90;33.20
43185;DHT22;28803;52.308;19.096;2023-05-29T12:48:07;37.90;35.10
43185;DHT22;28803;52.308;19.096;2023-05-29T12:50:40;36.20;35.90
43185;DHT22;28803;52.308;19.096;2023-05-29T12:53:11;33.90;39.10
43185;DHT22;28803;52.308;19.096;2023-05-29T12:55:40;32.40;40.50
43185;DHT22;28803;52.308;19.096;2023-05-29T12:58:09;31.50;41.00
43185;DHT22;28803;52.308;19.096;2023-05-29T13:00:38;32.90;39.70
43185;DHT22;28803;52.308;19.096;2023-05-29T13:03:07;34.80;37.70
43185;DHT22;28803;52.308;19.096;2023-05-29T13:05:36;36.30;37.70
43185;DHT22;28803;52.308;19.096;2023-05-29T13:08:04;37.40;35.60
43185;DHT22;28803;52.308;19.096;2023-05-29T13:10:35;37.90;36.10
43185;DHT22;28803;52.308;19.096;2023-05-29T13:13:03;38.30;35.60
43185;DHT22;28803;52.308;19.096;2023-05-29T13:15:31;38.70;35.70
43185;DHT22;28803;52.308;19.096;2023-05-29T13:18:00;39.10;34.40
43185;DHT22;28803;52.308;19.096;2023-05-29T13:20:28;38.90;34.30
43185;DHT22;28803;52.308;19.096;2023-05-29T13:22:55;37.40;35.90
43185;DHT22;28803;52.308;19.096;2023-05-29T13:25:23;35.20;37.10
43185;DHT22;28803;52.308;19.096;2023-05-29T13:27:52;33.60;38.10
43185;DHT22;28803;52.308;19.096;2023-05-29T13:30:20;32.90;40.10
43185;DHT22;28803;52.308;19.096;2023-05-29T13:32:50;32.60;40.70
43185;DHT22;28803;52.308;19.096;2023-05-29T13:35:18;32.20;41.20
43185;DHT22;28803;52.308;19.096;2023-05-29T13:37:46;31.50;40.90
43185;DHT22;28803;52.308;19.096;2023-05-29T13:40:13;30.40;42.10
43185;DHT22;28803;52.308;19.096;2023-05-29T13:42:40;30.20;41.90
43185;DHT22;28803;52.308;19.096;2023-05-29T13:45:08;30.90;43.00
43185;DHT22;28803;52.308;19.096;2023-05-29T13:47:36;30.60;43.70
43185;DHT22;28803;52.308;19.096;2023-05-29T13:50:04;29.70;44.20
43185;DHT22;28803;52.308;19.096;2023-05-29T13:52:32;30.30;45.60
43185;DHT22;28803;52.308;19.096;2023-05-29T13:54:59;31.70;41.50
43185;DHT22;28803;52.308;19.096;2023-05-29T13:57:32;33.30;40.10
43185;DHT22;28803;52.308;19.096;2023-05-29T13:59:59;34.70;39.40
43185;DHT22;28803;52.308;19.096;2023-05-29T14:02:26;35.30;37.40
43185;DHT22;28803;52.308;19.096;2023-05-29T14:04:54;33.90;37.50
43185;DHT22;28803;52.308;19.096;2023-05-29T14:07:21;32.20;39.80
43185;DHT22;28803;52.308;19.096;2023-05-29T14:09:49;30.70;41.50
43185;DHT22;28803;52.308;19.096;2023-05-29T14:12:16;29.30;41.70
43185;DHT22;28803;52.308;19.096;2023-05-29T14:14:44;28.50;43.70
43185;DHT22;28803;52.308;19.096;2023-05-29T14:17:11;28.70;44.10
43185;DHT22;28803;52.308;19.096;2023-05-29T14:19:39;30.40;43.40
43185;DHT22;28803;52.308;19.096;2023-05-29T14:22:07;32.50;40.10
43185;DHT22;28803;52.308;19.096;2023-05-29T14:24:40;34.20;40.60
43185;DHT22;28803;52.308;19.096;2023-05-29T14:27:14;34.30;38.80
43185;DHT22;28803;52.308;19.096;2023-05-29T14:29:42;33.10;39.40
43185;DHT22;28803;52.308;19.096;2023-05-29T14:32:09;32.40;41.00
43185;DHT22;28803;52.308;19.096;2023-05-29T14:34:37;31.80;42.60
43185;DHT22;28803;52.308;19.096;2023-05-29T14:37:04;31.20;43.70
43185;DHT22;28803;52.308;19.096;2023-05-29T14:39:32;31.30;43.40
43185;DHT22;28803;52.308;19.096;2023-05-29T14:41:59;32.00;43.80
43185;DHT22;28803;52.308;19.096;2023-05-29T14:44:26;32.50;41.50
43185;DHT22;28803;52.308;19.096;2023-05-29T14:46:53;32.30;42.50
43185;DHT22;28803;52.308;19.096;2023-05-29T14:49:21;31.30;42.60
43185;DHT22;28803;52.308;19.096;2023-05-29T14:51:50;30.20;43.40
43185;DHT22;28803;52.308;19.096;2023-05-29T14:54:17;30.00;44.50
43185;DHT22;28803;52.308;19.096;2023-05-29T14:56:45;30.00;45.00
43185;DHT22;28803;52.308;19.096;2023-05-29T14:59:12;29.60;43.80
43185;DHT22;28803;52.308;19.096;2023-05-29T15:01:40;28.90;45.90
43185;DHT22;28803;52.308;19.096;2023-05-29T15:04:08;28.90;46.00
43185;DHT22;28803;52.308;19.096;2023-05-29T15:06:35;27.40;46.80
43185;DHT22;28803;52.308;19.096;2023-05-29T15:09:03;27.30;47.80
43185;DHT22;28803;52.308;19.096;2023-05-29T15:11:31;26.00;47.40
43185;DHT22;28803;52.308;19.096;2023-05-29T15:13:58;25.90;48.00
43185;DHT22;28803;52.308;19.096;2023-05-29T15:16:26;25.50;49.60
43185;DHT22;28803;52.308;19.096;2023-05-29T15:18:53;25.40;50.00
43185;DHT22;28803;52.308;19.096;2023-05-29T15:21:20;25.20;50.90
43185;DHT22;28803;52.308;19.096;2023-05-29T15:23:48;24.90;51.30
43185;DHT22;28803;52.308;19.096;2023-05-29T15:26:15;24.50;51.20
43185;DHT22;28803;52.308;19.096;2023-05-29T15:28:42;24.30;54.10
43185;DHT22;28803;52.308;19.096;2023-05-29T15:31:09;24.10;54.40
43185;DHT22;28803;52.308;19.096;2023-05-29T15:33:37;23.90;52.80
43185;DHT22;28803;52.308;19.096;2023-05-29T15:36:06;23.60;52.80
43185;DHT22;28803;52.308;19.096;2023-05-29T15:38:34;23.30;55.20
43185;DHT22;28803;52.308;19.096;2023-05-29T15:41:02;23.10;54.90
43185;DHT22;28803;52.308;19.096;2023-05-29T15:43:30;22.90;56.00
43185;DHT22;28803;52.308;19.096;2023-05-29T15:45:59;23.00;55.50
43185;DHT22;28803;52.308;19.096;2023-05-29T15:48:27;23.00;55.10
43185;DHT22;28803;52.308;19.096;2023-05-29T15:50:54;23.00;56.30